Center for Professional Development & Training
CPDT sessions are restricted to UNF faculty, staff and OPS employees, including student assistants.

Below are current open training sessions. Restricted or full sessions are not listed. Contact training@unf.edu for additional information.

Directions:
Register for classes by checking the appropriate box next to each class and selecting the Enrollment Form button.
For a description of the classes, check the appropriate box next to each class and select the Information button.
Current semester: Fall 2016
Start Date Start Time Stop Time Class Location Trainer Seats Taken /
Capacity
09-27-2016 2:30PM 4:00PM Awarding Scholarships for Student Travel (AA-100) 1/1306 Lee, Angela 2 / 12
09-28-2016 9:00AM 11:00AM CMS Training: Beginner (ITS-118) 53/1400 Thompson, Katherine 13 / 15
09-28-2016 1:30PM 4:30PM Direct Pay & Elec. Invoice Approval (CON-102) 12/4301 Lee, Angela 5 / 12
09-29-2016 9:30AM 11:30AM Cultural Competency 101 (SA-121) 53/1400 Moore, Jake 11 / 20
09-29-2016 10:00AM 12:00PM Creating and Managing Online Surveys Level 2 (CIRT-102) 12/4301 Beauty Kolenc 5 / 12
09-29-2016 1:30PM 3:00PM Roundtable Discussion: Using NSSE data to define University culture (SA-200) 58E/2100 Dr. Jillian Kinzie 6 / 20
09-30-2016 9:00AM 4:00PM Access 2013 - Level 1 Beginner (PDT-320) 53/1400 Littleton, James 2 / 20
09-30-2016 9:30AM 11:30AM CCP in Worldview Identity (SA-146) 58W/3805 McNeal, Rachael 19 / 20
09-30-2016 10:30AM 11:30AM 5 Assessment Strategies to Measure Student Learning Outcomes (SA-201) 58E/2100 Dr. Dan Bureau 6 / 20
09-30-2016 2:00PM 3:00PM 5 Assessment Strategies to Measure Student Learning Outcomes (SA-201) 58E/2100 Dr. Dan Bureau 6 / 20
10-03-2016 9:00AM 10:00AM Avoiding Burnout (HR-136) 1/1306 Health Advocate (CCW) 4 / 15
10-03-2016 2:00PM 3:00PM Streamlining Assessment Procedures for Tracdat Reporting (AA-108) 12/4301 Possinger, Megan Schramm 1 / 12
10-04-2016 11:00AM 12:00PM Streamlining Assessment Procedures for Tracdat Reporting (AA-108) 12/4301 Possinger, Megan Schramm 0 / 12
10-04-2016 2:00PM 4:30PM University Domestic Travel Training (CON-106) 53/1400 Lee, Angela 4 / 20
10-05-2016 12:00PM 1:00PM Office Ergonomics - It Really is About You! (SA-154) 58W/3805 Tracy Nelson 1 / 20
10-05-2016 2:30PM 4:30PM University International Travel Training (CON-206) 53/1400 Lee, Angela 1 / 20
10-06-2016 9:00AM 11:00AM CMS Training: Beginner (ITS-118) 53/1400 Thompson, Katherine 2 / 15
10-06-2016 11:00AM 12:00PM Streamlining Assessment Procedures for Tracdat Reporting (AA-108) 12/4301 Possinger, Megan Schramm 0 / 12
10-06-2016 2:00PM 4:00PM iContracts (CON-108) 53/1400 Lee, Angela 2 / 20
10-07-2016 9:00AM 11:30AM Keys to Supervision - Beyond the Basics (PDT-607) 58W/3804 Ridge, Susan 15 / 18
10-07-2016 9:00AM 11:30AM CCP in Race & Ethnicity Identity (SA-143) 58E/2100 Deiderie Allard 12 / 20
10-10-2016 11:00AM 12:00PM Travel & Expense Training for Travelers and Approvers (CON-104) 12/4301 Lee, Angela 3 / 12
10-12-2016 10:00AM 11:30AM Management Matters (HR-112) 1/1306 Catron, Gregory 6 / 12
10-12-2016 1:30PM 3:30PM Finance Self Service (BGT-100) 12/4301 Lehmann, Joan 3 / 12
10-13-2016 12:00PM 1:20PM Breakroom Nightmares (SA-155) 58W/3804 Morgan, Marla 6 / 20
10-13-2016 1:30PM 4:30PM PCard Banner Training (PUR-110) 12/4301 Durden, Denise 4 / 12
10-14-2016 9:00AM 4:00PM Access 2010 - Level 2 Intermediate (PDT-267) 53/1400 Littleton, James 3 / 20
10-14-2016 12:00PM 1:00PM Streamlining Assessment Procedures for Tracdat Reporting (AA-108) 12/4301 Possinger, Megan Schramm 0 / 12
10-17-2016 10:00AM 11:00AM Streamlining Assessment Procedures for Tracdat Reporting (AA-108) 12/4301 Possinger, Megan Schramm 1 / 12
10-18-2016 2:00PM 4:00PM Creating a Requisition (PUR-104) 12/4301 Asmuth, Shawn 1 / 12
10-18-2016 2:00PM 4:00PM Accepting Credit Card Payments: Payment Card Industry Data Security Standards Compliance (PCI DSS) (PUR-113) 53/1400 Lee, Angela 2 / 20
10-19-2016 9:00AM 11:00AM CMS Training: Beginner (ITS-118) 53/1400 Thompson, Katherine 1 / 15
10-19-2016 1:00PM 2:00PM Streamlining Assessment Procedures for Tracdat Reporting (AA-108) 12/4301 Possinger, Megan Schramm 0 / 12
10-19-2016 1:30PM 4:30PM Travel and Expense Training for Delegates (CON-107) 53/1400 Lee, Angela 2 / 20
10-20-2016 9:00AM 11:00AM CMS Workshop (ITS-121) 53/1400 Thompson, Katherine 2 / 15
10-20-2016 9:30AM 11:30AM CCP in Military Veteran Identity (SA-144) 58W/3805 Murray, Morgan 13 / 20
10-20-2016 10:00AM 1:00PM Creating and Managing Online Surveys Level 1 (CIRT-101) 12/4301 Lerman, Justin 2 / 12
10-20-2016 10:00AM 11:30AM Information for UNF Search and Screen Committee Members (EOD-121) 58W/3804 Gonzalez, Cheryl 0 / 38
10-21-2016 9:00AM 12:00PM MBTI Workshop Series - What's My Type? - Part I (PDT-657) 53/1430 Harrison, Kelly 9 / 30
10-25-2016 10:00AM 11:00AM Streamlining Assessment Procedures for Tracdat Reporting (AA-108) 12/4301 Possinger, Megan Schramm 0 / 12
10-25-2016 1:30PM 4:30PM Direct Pay & Elec. Invoice Approval (CON-102) 53/1400 Lee, Angela 1 / 20
10-26-2016 2:00PM 4:00PM OnBase Web Client Training (ITS-113) 53/1400 Lee, Angela 1 / 18
10-27-2016 10:00AM 11:30AM Qualtrics Reporting Tools (CIRT-103) 12/4301 Beauty Kolenc 6 / 12
10-27-2016 1:00PM 2:00PM Streamlining Assessment Procedures for Tracdat Reporting (AA-108) 12/4301 Possinger, Megan Schramm 0 / 12
10-28-2016 9:00AM 12:30PM Safe Space: Cultural Competency in LGBTQ Identities (SA-133) 58E/2100 Kaitlin Legg 12 / 15
10-28-2016 10:00AM 11:00AM Streamlining Assessment Procedures for Tracdat Reporting (AA-108) 12/4301 Possinger, Megan Schramm 0 / 12
10-31-2016 2:00PM 3:30PM Title IX Panel Discussion (EOD-154) 58W/3806 Gonzalez, Cheryl 0 / 38
11-01-2016 10:00AM 11:00AM Streamlining Assessment Procedures for Tracdat Reporting (AA-108) 12/4301 Possinger, Megan Schramm 0 / 12
11-01-2016 2:00PM 4:30PM University Domestic Travel Training (CON-106) 12/4301 Lee, Angela 2 / 12
11-01-2016 2:00PM 3:30PM Information for UNF Search and Screen Committee Members (EOD-121) 58W/3804 Gonzalez, Cheryl 0 / 38
11-02-2016 9:00AM 11:00AM CMS Training: Beginner (ITS-118) 53/1400 Thompson, Katherine 1 / 15
11-02-2016 2:30PM 4:30PM University International Travel Training (CON-206) 12/4301 Lee, Angela 0 / 12
11-03-2016 9:00AM 11:00AM CMS Workshop (ITS-121) 53/1400 Thompson, Katherine 0 / 15
11-03-2016 12:00PM 1:00PM Streamlining Assessment Procedures for Tracdat Reporting (AA-108) 12/4301 Possinger, Megan Schramm 0 / 12
11-03-2016 2:30PM 4:00PM Awarding Scholarships for Student Travel (AA-100) 1/1306 Lee, Angela 1 / 12
11-04-2016 9:00AM 4:00PM Excel 2013- Level 2 Intermediate (PDT-311) 53/1400 Leas, Douglas 7 / 20
11-04-2016 9:30AM 11:30AM CCP in Gender Inclusion (SA-145) 58E/2100 Winfrey, Brandi 18 / 20
11-07-2016 11:00AM 12:00PM Travel & Expense Training for Travelers and Approvers (CON-104) 12/4301 Lee, Angela 1 / 12
11-09-2016 1:00PM 2:00PM Streamlining Assessment Procedures for Tracdat Reporting (AA-108) 12/4301 Possinger, Megan Schramm 0 / 12
11-09-2016 1:30PM 3:30PM Finance Self Service (BGT-100) 53/1400 Lehmann, Joan 0 / 24
11-09-2016 2:30PM 4:30PM CCP in Dis/ability Identity (SA-142) 58W/3805 Moore, Jake 16 / 20
11-10-2016 10:00AM 11:30AM HR Policies and Procedures (HR-150) 58W/3804 Catron, Gregory 6 / 35
11-14-2016 9:00AM 11:00AM Creating a Requisition (PUR-104) 53/1400 Asmuth, Shawn 0 / 24
11-14-2016 11:00AM 12:00PM Streamlining Assessment Procedures for Tracdat Reporting (AA-108) 12/4301 Possinger, Megan Schramm 0 / 12
11-15-2016 9:00AM 11:00AM Creating a Requisition (PUR-104) 53/1400 Asmuth, Shawn 0 / 24
11-15-2016 9:00AM 12:00PM PCard Banner Training (PUR-110) 53/1400 Durden, Denise 1 / 24
11-16-2016 9:00AM 12:00PM Improving my Coaching Style for Long Term Success (PDT-675) 58W/3804 Graf, Isabel 7 / 25
11-16-2016 9:00AM 11:00AM CMS Training: Beginner (ITS-118) 53/1400 Thompson, Katherine 0 / 15
11-16-2016 1:30PM 4:30PM Travel and Expense Training for Delegates (CON-107) 12/4301 Lee, Angela 1 / 12
11-16-2016 2:00PM 3:30PM Implications of Discrimination, Sexual Misconduct and Retaliation (EOD-122) 58W/3804 Gonzalez, Cheryl 0 / 38
11-17-2016 9:00AM 10:00AM Time Management (PDT-534) 1/1306 Health Advocate (CCW) 1 / 15
11-17-2016 9:00AM 11:00AM CMS Workshop (ITS-121) 53/1400 Thompson, Katherine 0 / 15
11-17-2016 10:00AM 11:30AM Qualtrics Offline Surveys (CIRT-104) 12/4301 Beauty Kolenc 3 / 12
11-17-2016 12:00PM 1:20PM Steps to Prevent Holiday Weight Gain (SA-156) 58W/3804 Gilman, Marilyn 4 / 20
11-17-2016 2:00PM 4:00PM iContracts (CON-108) 53/1400 Lee, Angela 0 / 20
11-17-2016 2:00PM 3:00PM Streamlining Assessment Procedures for Tracdat Reporting (AA-108) 12/4301 Possinger, Megan Schramm 0 / 12
11-18-2016 9:00AM 12:00PM MBTI Workshop Series - What's My Type? - Part II (PDT-664) 53/1430 Harrison, Kelly 9 / 30
11-18-2016 10:00AM 11:00AM Streamlining Assessment Procedures for Tracdat Reporting (AA-108) 12/4301 Possinger, Megan Schramm 0 / 12
11-18-2016 2:00PM 4:00PM Accepting Credit Card Payments: Payment Card Industry Data Security Standards Compliance (PCI DSS) (PUR-113) 12/4301 Lee, Angela 0 / 12
11-29-2016 1:30PM 4:30PM Direct Pay & Elec. Invoice Approval (CON-102) 12/4301 Lee, Angela 0 / 12
11-30-2016 9:30AM 11:30AM CMS Training: Beginner (ITS-118) 53/1400 Thompson, Katherine 0 / 15
12-01-2016 9:00AM 11:00AM CMS Workshop (ITS-121) 53/1400 Thompson, Katherine 1 / 15
12-01-2016 2:00PM 4:30PM University Domestic Travel Training (CON-106) 53/1400 Lee, Angela 0 / 20
12-02-2016 9:00AM 12:30PM Safe Space: Cultural Competency in LGBTQ Identities (SA-133) 58W/3805 Kaitlin Legg 5 / 15
12-02-2016 2:30PM 4:30PM University International Travel Training (CON-206) 53/1400 Lee, Angela 0 / 20
12-05-2016 11:00AM 12:00PM Travel & Expense Training for Travelers and Approvers (CON-104) 12/4301 Lee, Angela 0 / 12
12-06-2016 9:00AM 11:00AM Finance Self Service (BGT-100) 12/4301 Lehmann, Joan 1 / 12
12-07-2016 1:30PM 4:30PM Travel and Expense Training for Delegates (CON-107) 53/1400 Lee, Angela 0 / 20
12-08-2016 1:30PM 4:30PM PCard Banner Training (PUR-110) 12/4301 Durden, Denise 0 / 12
12-09-2016 10:00AM 12:00PM OnBase Web Client Training (ITS-113) 12/4301 Lee, Angela 0 / 12
12-12-2016 12:30PM 4:30PM Excel 2013- Level 3 Advanced (PDT-308) 53/1400 Leas, Douglas 9 / 20
12-16-2016 9:00AM 12:00PM MBTI Workshop Series - What's My Type? - Part III (PDT-668) 53/1430 Harrison, Kelly 9 / 30